Time;durP1;ratioP1;P1;durP2;ratioP2;P2;SDS_P1;SDS_P2;PMS_P1;PMS_P2;Temp;Humidity;BMP_temperature;BMP_pressure;BME280_temperature;BME280_humidity;BME280_pressure;Samples;Min_cycle;Max_cycle;Signal;HPM_P1;HPM_P2
2023/05/17 00:01:04;;;;;;;27.92;15.68;;;;;;;25.71;47.88;97983.28;5005648;28;20046;-64
2023/05/17 00:03:36;;;;;;;29.17;15.80;;;;;;;25.69;47.60;97980.84;5006062;28;20057;-66
2023/05/17 00:06:10;;;;;;;28.35;16.98;;;;;;;25.67;47.86;97982.28;4987367;28;20048;-63
2023/05/17 00:08:40;;;;;;;27.63;16.10;;;;;;;25.64;48.14;97980.97;4986259;28;20054;-64
2023/05/17 00:11:09;;;;;;;33.03;17.55;;;;;;;25.64;48.31;97985.59;5000749;28;20050;-63
2023/05/17 00:13:39;;;;;;;28.83;17.75;;;;;;;25.64;48.08;97985.59;5006378;28;20112;-64
2023/05/17 00:16:09;;;;;;;38.65;17.45;;;;;;;25.60;48.24;97985.41;5004619;28;20144;-63
2023/05/17 00:18:39;;;;;;;26.52;16.98;;;;;;;25.61;48.80;97989.75;4980960;28;20054;-62
2023/05/17 00:21:08;;;;;;;31.00;17.95;;;;;;;25.63;48.46;97992.94;5005452;28;20150;-64
2023/05/17 00:23:38;;;;;;;31.95;18.08;;;;;;;25.64;49.04;97991.81;5009558;28;20061;-64
2023/05/17 00:26:07;;;;;;;30.08;17.83;;;;;;;25.64;49.20;97991.81;5009146;28;20054;-62
2023/05/17 00:28:36;;;;;;;33.58;18.25;;;;;;;25.66;49.18;97995.03;4999843;28;20053;-63
2023/05/17 00:31:05;;;;;;;37.03;19.90;;;;;;;25.65;49.11;97990.72;4973376;28;20041;-64
2023/05/17 00:33:35;;;;;;;39.75;20.58;;;;;;;25.69;48.89;97996.31;4971867;28;20050;-62
2023/05/17 00:36:05;;;;;;;41.55;19.98;;;;;;;25.70;48.49;97997.94;5006280;28;20049;-63
2023/05/17 00:38:34;;;;;;;33.63;20.67;;;;;;;25.71;48.49;97997.63;4988098;28;20062;-62
2023/05/17 00:41:05;;;;;;;35.92;21.15;;;;;;;25.73;48.77;98002.75;4996570;28;20056;-63
2023/05/17 00:43:34;;;;;;;36.55;21.70;;;;;;;25.77;48.53;98006.44;4991824;28;20151;-63
2023/05/17 00:46:03;;;;;;;44.85;21.17;;;;;;;25.78;48.92;98003.44;5007254;28;20653;-62
2023/05/17 00:48:33;;;;;;;41.60;22.27;;;;;;;25.82;48.95;98009.03;4998025;28;20068;-64
2023/05/17 00:51:03;;;;;;;47.58;23.00;;;;;;;25.83;48.93;98008.72;5004039;28;20057;-65
2023/05/17 00:53:33;;;;;;;41.50;23.95;;;;;;;25.85;48.67;98011.94;4987331;28;20540;-61
2023/05/17 00:56:04;;;;;;;48.13;23.17;;;;;;;25.88;48.67;98010.53;5006194;28;20137;-62
2023/05/17 00:58:34;;;;;;;44.83;24.23;;;;;;;25.94;48.58;98015.50;4991209;28;20123;-63
2023/05/17 01:01:05;;;;;;;44.88;24.80;;;;;;;25.96;49.32;98014.41;5008028;28;20500;-63
2023/05/17 01:03:36;;;;;;;46.10;26.42;;;;;;;26.00;49.16;98018.09;5008020;28;20034;-62
2023/05/17 01:06:06;;;;;;;44.55;27.20;;;;;;;26.02;49.37;98018.59;5005155;28;20760;-62
2023/05/17 01:08:35;;;;;;;46.50;26.98;;;;;;;26.06;49.67;98027.72;4991150;28;20149;-61
2023/05/17 01:11:23;;;;;;;52.13;28.98;;;;;;;26.12;49.89;98026.47;4999603;28;20043;-63
2023/05/17 01:14:02;;;;;;;55.33;28.67;;;;;;;26.18;49.88;98036.09;4983757;28;20054;-60
2023/05/17 01:16:43;;;;;;;51.05;30.05;;;;;;;26.21;49.99;98044.44;4989084;28;20522;-65
2023/05/17 01:19:49;;;;;;;59.47;31.38;;;;;;;26.28;49.88;98052.19;4995274;28;20054;-62
2023/05/17 01:22:46;;;;;;;55.22;30.95;;;;;;;26.35;49.68;98052.53;5006234;28;20371;-63
2023/05/17 01:25:33;;;;;;;54.97;32.30;;;;;;;26.46;49.61;98053.06;5007220;28;20038;-62
2023/05/17 01:28:04;;;;;;;54.50;31.63;;;;;;;26.54;49.38;98060.47;5003353;28;20636;-63
2023/05/17 01:30:35;;;;;;;57.88;32.33;;;;;;;26.61;49.38;98069.75;4989104;28;20070;-62
2023/05/17 01:33:06;;;;;;;57.00;31.77;;;;;;;26.68;49.83;98063.91;5004027;28;20050;-62
2023/05/17 01:35:36;;;;;;;58.75;31.52;;;;;;;26.74;49.30;98074.31;5007653;28;20049;-61
2023/05/17 01:38:05;;;;;;;56.20;32.00;;;;;;;26.81;50.44;98074.66;4990526;28;20064;-61
2023/05/17 01:40:38;;;;;;;44.17;29.35;;;;;;;26.93;50.51;98076.00;4988380;28;20054;-62
2023/05/17 01:43:45;;;;;;;52.13;30.40;;;;;;;27.08;50.12;98078.31;4990791;28;20054;-62
2023/05/17 01:46:23;;;;;;;42.50;26.60;;;;;;;27.43;49.34;98079.19;4971555;28;20046;-63
2023/05/17 01:49:32;;;;;;;44.17;24.92;;;;;;;27.99;47.59;98086.47;4987747;28;20129;-61
2023/05/17 01:52:24;;;;;;;44.28;26.95;;;;;;;28.76;45.95;98082.88;4970281;28;20058;-61
2023/05/17 01:55:08;;;;;;;52.28;29.13;;;;;;;29.40;45.81;98084.34;4985573;28;20132;-62
2023/05/17 01:57:42;;;;;;;52.17;29.65;;;;;;;29.91;43.91;98079.72;4990628;28;20798;-62
2023/05/17 02:00:13;;;;;;;52.53;30.63;;;;;;;30.32;42.89;98082.38;4989750;28;20037;-64
2023/05/17 02:02:44;;;;;;;57.20;33.15;;;;;;;30.68;41.90;98084.44;5005559;28;20772;-63
2023/05/17 02:05:14;;;;;;;60.22;35.97;;;;;;;31.04;41.18;98093.84;4985609;28;20047;-63
2023/05/17 02:07:43;;;;;;;59.85;35.95;;;;;;;31.36;40.31;98078.47;4983481;28;20523;-62
2023/05/17 02:10:13;;;;;;;61.60;37.13;;;;;;;31.68;39.90;98095.91;4990318;28;20058;-63
2023/05/17 02:12:43;;;;;;;69.85;34.92;;;;;;;31.92;40.04;98096.63;4989074;28;20061;-63
2023/05/17 02:15:15;;;;;;;61.42;33.67;;;;;;;32.13;40.02;98087.50;4994004;28;20147;-62
2023/05/17 02:17:44;;;;;;;67.63;34.28;;;;;;;32.35;38.86;98082.22;5001548;28;20046;-63
2023/05/17 02:20:14;;;;;;;71.63;37.47;;;;;;;32.57;38.90;98083.63;4988248;28;20125;-62
2023/05/17 02:22:44;;;;;;;63.42;35.90;;;;;;;32.73;39.34;98089.94;4989788;28;20049;-62
2023/05/17 02:25:14;;;;;;;67.32;35.80;;;;;;;32.93;38.42;98086.13;4976917;28;20038;-63
2023/05/17 02:27:43;;;;;;;65.15;35.67;;;;;;;33.04;37.96;98091.09;5007669;28;20074;-63
2023/05/17 02:30:15;;;;;;;63.85;35.30;;;;;;;33.23;37.44;98085.72;5013002;28;20056;-64
2023/05/17 02:32:48;;;;;;;64.40;35.05;;;;;;;33.41;36.15;98098.69;4980788;28;20769;-63
2023/05/17 02:35:18;;;;;;;63.15;36.08;;;;;;;33.54;36.22;98095.84;4989332;28;20038;-63
2023/05/17 02:37:50;;;;;;;65.18;36.60;;;;;;;33.60;35.19;98102.66;5007596;28;20056;-62
2023/05/17 02:40:20;;;;;;;72.32;36.30;;;;;;;33.70;34.54;98093.88;5005178;28;20524;-62
2023/05/17 02:42:49;;;;;;;61.38;34.78;;;;;;;33.72;35.04;98095.13;5007416;28;20053;-64
2023/05/17 02:45:18;;;;;;;66.53;36.90;;;;;;;33.82;34.61;98096.50;5005568;28;20053;-62
2023/05/17 02:47:48;;;;;;;58.35;34.88;;;;;;;33.81;34.52;98103.94;5008527;28;20370;-62
2023/05/17 02:50:17;;;;;;;60.03;34.08;;;;;;;33.85;34.87;98106.78;4999788;28;20038;-62
2023/05/17 02:52:47;;;;;;;57.17;33.95;;;;;;;33.94;34.87;98103.81;4994803;28;20112;-61
2023/05/17 02:55:16;;;;;;;70.57;36.85;;;;;;;33.95;34.32;98113.63;5005755;28;20034;-60
2023/05/17 02:57:45;;;;;;;63.38;35.22;;;;;;;33.93;34.84;98110.47;5006538;28;20469;-60
2023/05/17 03:00:15;;;;;;;61.65;35.67;;;;;;;33.83;34.26;98112.63;4990534;28;20045;-60
2023/05/17 03:02:45;;;;;;;67.80;36.90;;;;;;;33.89;33.56;98117.84;4998927;28;20046;-60
2023/05/17 03:05:14;;;;;;;61.20;36.30;;;;;;;33.79;33.06;98122.75;4993531;28;20046;-61
2023/05/17 03:07:48;;;;;;;67.93;37.08;;;;;;;33.78;33.85;98126.66;5008417;28;20661;-62
2023/05/17 03:10:18;;;;;;;62.45;38.28;;;;;;;33.75;34.44;98123.81;5006243;28;20042;-63
2023/05/17 03:12:47;;;;;;;60.45;36.92;;;;;;;33.63;34.19;98126.66;4979758;28;20509;-63
2023/05/17 03:15:20;;;;;;;64.75;36.67;;;;;;;33.49;35.16;98131.81;4977134;28;20065;-61
2023/05/17 03:17:49;;;;;;;64.82;37.40;;;;;;;33.25;36.40;98133.63;4986370;28;20053;-61
2023/05/17 03:20:19;;;;;;;65.55;34.88;;;;;;;33.17;36.09;98134.59;4997538;28;20069;-61
2023/05/17 03:22:49;;;;;;;69.85;36.17;;;;;;;33.06;36.59;98133.50;5006173;28;20120;-62
2023/05/17 03:25:18;;;;;;;65.35;36.35;;;;;;;32.93;36.94;98135.53;4985623;28;20051;-61
2023/05/17 03:27:47;;;;;;;59.72;34.70;;;;;;;32.86;36.49;98143.59;5000976;28;20056;-62
2023/05/17 03:30:17;;;;;;;66.65;36.72;;;;;;;32.77;35.16;98144.88;5006112;28;20068;-62
2023/05/17 03:32:48;;;;;;;57.92;35.78;;;;;;;32.69;36.08;98141.16;4980480;28;20116;-63
2023/05/17 03:35:19;;;;;;;59.38;35.45;;;;;;;32.52;36.62;98141.47;4987684;28;20042;-61
2023/05/17 03:37:53;;;;;;;56.97;33.50;;;;;;;32.39;35.23;98139.91;4987850;28;20100;-60
2023/05/17 03:40:25;;;;;;;53.85;32.38;;;;;;;32.38;36.27;98141.06;4987034;28;20125;-61
2023/05/17 03:42:56;;;;;;;56.25;32.30;;;;;;;32.33;36.47;98147.56;4985001;28;20293;-61
2023/05/17 03:45:26;;;;;;;55.45;30.33;;;;;;;32.33;36.49;98155.00;4994683;28;20041;-62
2023/05/17 03:47:57;;;;;;;47.10;28.23;;;;;;;31.94;37.22;98145.63;4988810;28;20042;-62
2023/05/17 03:50:28;;;;;;;50.78;28.35;;;;;;;31.65;38.31;98152.16;4987825;28;20144;-62
2023/05/17 03:52:58;;;;;;;48.70;26.80;;;;;;;31.66;37.66;98153.75;4988405;28;20153;-64
2023/05/17 03:55:27;;;;;;;42.40;26.10;;;;;;;31.69;37.72;98160.50;4992754;28;20698;-63
2023/05/17 03:57:57;;;;;;;35.63;20.13;;;;;;;31.47;37.92;98156.22;4993184;28;20061;-62
2023/05/17 04:00:26;;;;;;;29.65;17.23;;;;;;;31.54;36.39;98161.94;5008515;28;20045;-65
2023/05/17 04:03:01;;;;;;;31.27;18.00;;;;;;;31.68;37.76;98162.44;5000813;28;20081;-65
2023/05/17 04:05:32;;;;;;;30.38;17.38;;;;;;;31.72;36.56;98157.06;4991519;28;20046;-64
2023/05/17 04:08:02;;;;;;;25.95;14.73;;;;;;;31.60;37.30;98160.63;5008555;28;20038;-65
2023/05/17 04:10:32;;;;;;;23.50;12.27;;;;;;;31.71;36.92;98164.47;4991440;28;20069;-64
2023/05/17 04:13:03;;;;;;;24.92;11.52;;;;;;;31.82;37.00;98164.81;5005364;28;20042;-62
2023/05/17 04:15:33;;;;;;;18.05;9.75;;;;;;;31.87;37.20;98159.88;4993348;28;20046;-64
2023/05/17 04:18:04;;;;;;;15.80;8.75;;;;;;;31.96;36.71;98163.28;4987552;28;20046;-63
2023/05/17 04:20:34;;;;;;;19.30;8.55;;;;;;;31.92;35.59;98162.38;5004052;28;20045;-64
2023/05/17 04:23:04;;;;;;;18.50;8.40;;;;;;;32.04;36.49;98158.84;4991400;28;20064;-64
2023/05/17 04:25:35;;;;;;;11.45;5.78;;;;;;;32.08;34.96;98168.75;5004766;28;20136;-61
2023/05/17 04:28:05;;;;;;;15.23;6.55;;;;;;;32.28;36.51;98168.94;5004655;28;20049;-62
2023/05/17 04:30:35;;;;;;;14.45;7.15;;;;;;;32.52;36.95;98177.09;5008967;28;20567;-62
2023/05/17 04:33:05;;;;;;;24.65;8.30;;;;;;;32.61;34.98;98183.22;4991515;28;20057;-63
2023/05/17 04:35:35;;;;;;;16.23;7.15;;;;;;;32.61;34.30;98174.22;5008442;28;20738;-62
2023/05/17 04:38:05;;;;;;;16.52;8.73;;;;;;;32.73;33.25;98174.97;4994295;28;20595;-61
2023/05/17 04:40:36;;;;;;;18.95;8.65;;;;;;;32.75;34.41;98183.63;4992189;28;20140;-61
2023/05/17 04:43:05;;;;;;;18.25;9.73;;;;;;;32.84;34.27;98181.53;4983162;28;20058;-63
2023/05/17 04:45:36;;;;;;;28.67;10.50;;;;;;;32.80;34.34;98186.13;4973703;28;20094;-64
2023/05/17 04:48:07;;;;;;;30.55;10.63;;;;;;;32.90;35.05;98185.63;4990535;28;20042;-63
2023/05/17 04:50:37;;;;;;;19.08;10.38;;;;;;;32.91;35.27;98187.22;4989180;28;20050;-64
2023/05/17 04:53:06;;;;;;;20.25;9.48;;;;;;;33.07;35.43;98183.69;4989352;28;20697;-64
2023/05/17 04:55:36;;;;;;;21.70;8.30;;;;;;;32.98;34.14;98189.34;4981788;28;20046;-64
2023/05/17 04:58:06;;;;;;;12.77;5.95;;;;;;;33.16;32.91;98182.41;4975530;28;20112;-62
2023/05/17 05:00:37;;;;;;;15.20;5.82;;;;;;;33.19;34.24;98187.22;4998429;28;20042;-66
2023/05/17 05:03:08;;;;;;;18.20;6.43;;;;;;;33.39;35.55;98188.88;4987193;28;20042;-64
2023/05/17 05:05:39;;;;;;;15.98;6.50;;;;;;;33.63;36.25;98176.13;4998066;28;20050;-64
2023/05/17 05:08:10;;;;;;;17.48;7.00;;;;;;;33.54;35.14;98186.50;4971398;28;20046;-60
2023/05/17 05:10:40;;;;;;;19.70;5.85;;;;;;;33.52;33.14;98181.34;4981097;28;20074;-60
2023/05/17 05:13:11;;;;;;;12.45;5.13;;;;;;;33.51;32.54;98179.75;4990839;28;20107;-60
2023/05/17 05:15:42;;;;;;;10.45;5.55;;;;;;;33.54;32.06;98173.56;4638892;28;10000630;-61
2023/05/17 05:18:11;;;;;;;12.23;5.07;;;;;;;33.50;33.80;98174.63;4973518;28;20041;-62
2023/05/17 05:20:41;;;;;;;10.43;5.05;;;;;;;33.47;31.38;98176.13;4999317;28;20042;-63
2023/05/17 05:23:11;;;;;;;16.67;5.97;;;;;;;33.63;30.30;98163.19;4980206;28;20053;-63
2023/05/17 05:25:43;;;;;;;17.65;7.15;;;;;;;33.50;32.62;98167.19;4997503;28;20058;-61
2023/05/17 05:28:13;;;;;;;17.17;6.82;;;;;;;33.75;35.55;98157.59;4972800;28;20081;-63
2023/05/17 05:30:43;;;;;;;16.83;7.35;;;;;;;33.88;36.10;98162.97;4976233;28;20082;-60
2023/05/17 05:33:14;;;;;;;16.38;7.75;;;;;;;34.38;33.43;98159.38;4986326;28;20736;-61
2023/05/17 05:35:46;;;;;;;17.02;8.15;;;;;;;34.59;32.08;98148.78;4981703;28;20072;-60
2023/05/17 05:38:16;;;;;;;17.92;8.35;;;;;;;34.45;30.79;98152.03;4979579;28;20050;-60
2023/05/17 05:40:48;;;;;;;22.77;8.90;;;;;;;34.40;33.95;98151.53;4997444;28;20120;-62
2023/05/17 05:43:18;;;;;;;19.42;8.52;;;;;;;34.16;33.69;98150.69;4999638;28;20046;-59
2023/05/17 05:45:47;;;;;;;32.53;8.32;;;;;;;33.94;34.42;98153.28;4981701;28;20600;-58
2023/05/17 05:48:17;;;;;;;27.20;8.98;;;;;;;33.93;34.86;98154.44;4952837;28;20057;-59
2023/05/17 05:50:47;;;;;;;24.55;7.65;;;;;;;33.86;34.82;98159.78;4980310;28;20046;-62
2023/05/17 05:53:17;;;;;;;19.80;6.85;;;;;;;33.70;33.41;98155.13;4996312;28;20050;-61
2023/05/17 05:55:54;;;;;;;15.50;7.40;;;;;;;33.52;33.17;98162.13;4973590;28;20042;-62
2023/05/17 05:58:24;;;;;;;19.23;7.15;;;;;;;33.90;34.45;98163.41;4968640;28;20078;-62
2023/05/17 06:00:56;;;;;;;13.25;5.32;;;;;;;33.97;35.75;98158.06;4953575;28;20058;-60
2023/05/17 06:03:25;;;;;;;19.35;5.93;;;;;;;33.88;32.75;98157.47;4994375;28;20046;-60
2023/05/17 06:05:55;;;;;;;16.88;6.40;;;;;;;33.80;34.33;98156.53;4996521;28;20073;-61
2023/05/17 06:08:24;;;;;;;16.42;5.60;;;;;;;33.51;33.78;98163.25;5007966;28;20056;-59
2023/05/17 06:10:54;;;;;;;16.10;6.32;;;;;;;33.54;34.52;98159.81;4989785;28;20046;-61
2023/05/17 06:13:24;;;;;;;12.82;5.32;;;;;;;33.53;33.47;98158.22;4995333;28;20741;-61
2023/05/17 06:15:53;;;;;;;21.98;5.32;;;;;;;33.55;32.23;98161.38;5006580;28;20785;-60
2023/05/17 06:18:22;;;;;;;10.25;4.32;;;;;;;33.61;33.34;98159.19;5005096;28;20076;-60
2023/05/17 06:20:52;;;;;;;11.00;3.92;;;;;;;33.61;32.90;98153.69;5007273;28;20042;-59
2023/05/17 06:23:21;;;;;;;16.40;5.82;;;;;;;33.69;34.06;98163.72;5005509;28;20065;-61
2023/05/17 06:25:51;;;;;;;12.88;4.82;;;;;;;33.77;33.57;98158.03;5008538;28;20037;-62
2023/05/17 06:28:20;;;;;;;13.05;4.30;;;;;;;33.95;34.27;98152.91;5008113;28;20057;-63
2023/05/17 06:30:49;;;;;;;7.03;3.97;;;;;;;33.79;33.89;98155.72;4661314;28;9999924;-62
2023/05/17 06:33:19;;;;;;;14.40;4.47;;;;;;;33.79;34.64;98157.66;5001781;28;20053;-61
2023/05/17 06:35:49;;;;;;;8.15;4.25;;;;;;;33.94;35.95;98150.56;5005172;28;20706;-61
2023/05/17 06:38:25;;;;;;;11.25;4.75;;;;;;;33.94;35.06;98145.06;5004958;28;20736;-62
2023/05/17 06:40:57;;;;;;;14.73;5.22;;;;;;;33.86;36.38;98149.56;4988290;28;20049;-63
2023/05/17 06:43:27;;;;;;;9.13;5.03;;;;;;;33.98;32.04;98140.44;4987714;28;20053;-62
2023/05/17 06:45:56;;;;;;;10.48;4.63;;;;;;;33.77;34.74;98133.28;5002553;28;20056;-64
2023/05/17 06:48:26;;;;;;;12.13;4.47;;;;;;;33.68;34.42;98137.41;5006575;28;20057;-61
2023/05/17 06:50:55;;;;;;;10.38;4.57;;;;;;;33.74;35.09;98134.03;5003691;28;20096;-63
2023/05/17 06:53:26;;;;;;;19.88;6.38;;;;;;;33.75;34.93;98132.88;5005077;28;20058;-62
2023/05/17 06:55:56;;;;;;;10.27;4.50;;;;;;;33.93;34.59;98119.53;5006092;28;20753;-63
2023/05/17 06:58:26;;;;;;;13.43;5.10;;;;;;;34.06;35.38;98126.47;5005283;28;20046;-64
2023/05/17 07:00:56;;;;;;;11.95;4.32;;;;;;;33.88;34.62;98119.78;5003545;28;20069;-63
2023/05/17 07:03:26;;;;;;;14.88;4.15;;;;;;;33.80;34.54;98131.78;5005562;28;20128;-61
2023/05/17 07:05:56;;;;;;;14.93;4.40;;;;;;;33.71;33.48;98123.75;5005791;28;20073;-61
2023/05/17 07:08:36;;;;;;;14.45;4.32;;;;;;;33.87;31.78;98117.41;5006207;28;20057;-63
2023/05/17 07:11:05;;;;;;;9.25;4.00;;;;;;;34.31;31.52;98124.25;4987108;28;20046;-63
2023/05/17 07:13:34;;;;;;;12.07;4.85;;;;;;;34.31;34.30;98121.50;4987136;28;20081;-64
2023/05/17 07:16:06;;;;;;;14.20;4.60;;;;;;;34.42;32.81;98125.28;4986990;28;20117;-64
2023/05/17 07:18:36;;;;;;;12.57;4.20;;;;;;;34.20;33.31;98121.31;4985969;28;20050;-66
2023/05/17 07:21:05;;;;;;;12.35;4.85;;;;;;;34.27;31.17;98115.13;4985582;28;20058;-64
2023/05/17 07:23:35;;;;;;;14.35;4.93;;;;;;;34.26;33.12;98113.53;4986771;28;20062;-64
2023/05/17 07:26:04;;;;;;;15.68;4.30;;;;;;;34.17;33.22;98110.22;4986649;28;20057;-65
2023/05/17 07:28:34;;;;;;;16.08;4.60;;;;;;;34.11;33.37;98114.41;4987581;28;20100;-59
2023/05/17 07:31:03;;;;;;;18.90;5.18;;;;;;;34.30;33.70;98119.91;4986067;28;20061;-61
2023/05/17 07:33:33;;;;;;;12.25;4.13;;;;;;;34.53;32.79;98106.22;4986949;28;20066;-62
2023/05/17 07:36:04;;;;;;;16.15;5.85;;;;;;;34.78;32.39;98117.72;4984510;28;20078;-62
2023/05/17 07:38:36;;;;;;;13.70;4.25;;;;;;;34.64;32.60;98121.78;4987416;28;20359;-62
2023/05/17 07:41:12;;;;;;;9.90;3.97;;;;;;;34.54;32.13;98103.09;4989968;28;20050;-60
2023/05/17 07:43:42;;;;;;;11.88;4.18;;;;;;;34.58;31.60;98114.16;4983867;28;20053;-63
2023/05/17 07:46:14;;;;;;;12.70;4.55;;;;;;;34.55;31.94;98112.16;4986317;28;20039;-65
2023/05/17 07:48:43;;;;;;;10.10;4.68;;;;;;;34.66;31.77;98096.66;4984559;28;20058;-62
2023/05/17 07:51:13;;;;;;;11.18;4.20;;;;;;;34.65;30.45;98097.81;4984218;28;20050;-67
2023/05/17 07:53:45;;;;;;;17.33;4.30;;;;;;;34.46;33.14;98104.13;4984348;28;20042;-64
2023/05/17 07:56:15;;;;;;;6.75;4.28;;;;;;;34.65;29.64;98093.06;4985235;28;20054;-63
2023/05/17 07:58:45;;;;;;;16.23;4.53;;;;;;;34.71;31.86;98093.59;4984626;28;20466;-62
2023/05/17 08:01:14;;;;;;;10.65;4.28;;;;;;;34.74;31.05;98092.09;4985421;28;20061;-61
2023/05/17 08:03:46;;;;;;;9.32;4.75;;;;;;;34.91;31.81;98084.16;4986451;28;20486;-62
2023/05/17 08:06:17;;;;;;;12.88;4.88;;;;;;;34.85;28.91;98082.06;4985899;28;20128;-60
2023/05/17 08:08:47;;;;;;;16.85;5.45;;;;;;;34.58;31.47;98081.16;4986947;28;20133;-60
2023/05/17 08:11:17;;;;;;;10.77;5.80;;;;;;;34.56;32.39;98078.78;4986501;28;20052;-59
2023/05/17 08:13:46;;;;;;;13.77;5.40;;;;;;;34.43;31.65;98073.81;4991630;28;20050;-60
2023/05/17 08:16:15;;;;;;;12.38;5.95;;;;;;;34.33;31.96;98074.41;5000125;28;20050;-60
2023/05/17 08:18:45;;;;;;;17.77;6.10;;;;;;;34.22;32.77;98069.47;4993861;28;20112;-60
2023/05/17 08:21:15;;;;;;;11.75;5.78;;;;;;;33.94;33.17;98073.59;5000992;28;20702;-60
2023/05/17 08:23:44;;;;;;;13.93;5.45;;;;;;;33.99;32.29;98056.81;4994582;28;20144;-59
2023/05/17 08:26:14;;;;;;;11.23;5.72;;;;;;;33.82;33.32;98061.56;4969175;28;20051;-59
2023/05/17 08:28:44;;;;;;;11.25;5.90;;;;;;;33.91;33.19;98057.81;4979539;28;20058;-59
2023/05/17 08:31:13;;;;;;;10.32;5.95;;;;;;;33.90;32.64;98051.53;4994240;28;20129;-59
2023/05/17 08:33:43;;;;;;;12.85;5.45;;;;;;;33.90;33.58;98054.28;4995813;28;20046;-59
2023/05/17 08:36:13;;;;;;;12.05;5.90;;;;;;;34.13;31.12;98054.34;4978823;28;20700;-60
2023/05/17 08:38:43;;;;;;;19.98;5.72;;;;;;;33.90;32.15;98046.06;5003531;28;20140;-60
2023/05/17 08:41:12;;;;;;;13.90;5.90;;;;;;;33.72;34.09;98048.44;4991729;28;20414;-59
2023/05/17 08:43:43;;;;;;;16.50;6.40;;;;;;;33.59;35.58;98040.66;4988058;28;20042;-59
2023/05/17 08:46:14;;;;;;;12.70;5.28;;;;;;;33.56;34.13;98039.41;4990084;28;20069;-59
2023/05/17 08:48:49;;;;;;;10.98;4.97;;;;;;;33.37;31.74;98036.63;4988605;28;20054;-60
2023/05/17 08:51:22;;;;;;;10.82;5.72;;;;;;;33.31;32.89;98035.31;4989416;28;20038;-59
2023/05/17 08:53:51;;;;;;;8.52;5.70;;;;;;;33.17;31.98;98032.22;4989495;28;20054;-59
2023/05/17 08:56:23;;;;;;;15.30;5.80;;;;;;;33.24;32.08;98035.13;4989263;28;20161;-58
2023/05/17 08:58:57;;;;;;;11.27;5.03;;;;;;;33.35;34.54;98026.00;4988331;28;20054;-60
2023/05/17 09:01:28;;;;;;;10.48;5.30;;;;;;;33.24;35.94;98024.94;4988048;28;20525;-59
2023/05/17 09:04:00;;;;;;;14.60;5.82;;;;;;;33.17;35.11;98016.56;4987752;28;20858;-63
2023/05/17 09:06:32;;;;;;;17.48;5.50;;;;;;;33.02;34.41;98022.84;4987896;28;20530;-60
2023/05/17 09:09:03;;;;;;;14.43;5.28;;;;;;;32.89;33.81;98002.94;4987377;28;20353;-60
2023/05/17 09:11:33;;;;;;;16.10;5.45;;;;;;;32.85;34.68;98004.81;4988966;28;20125;-66
2023/05/17 09:14:04;;;;;;;14.55;6.45;;;;;;;32.85;35.83;97993.84;4997679;28;20541;-65
2023/05/17 09:16:36;;;;;;;11.73;5.10;;;;;;;32.93;35.78;98001.06;5008094;28;20059;-66
2023/05/17 09:19:08;;;;;;;16.00;5.80;;;;;;;33.06;34.82;97996.28;4989450;28;20177;-64
2023/05/17 09:21:38;;;;;;;12.98;5.47;;;;;;;33.13;34.40;97996.44;4987786;28;20369;-65
2023/05/17 09:24:07;;;;;;;13.35;5.60;;;;;;;33.10;34.40;97988.94;4988786;28;20156;-64
2023/05/17 09:26:44;;;;;;;12.77;5.53;;;;;;;33.23;34.84;97984.94;4987155;28;20141;-65
2023/05/17 09:29:16;;;;;;;12.45;5.75;;;;;;;33.35;34.63;97976.59;4984422;28;20836;-64
2023/05/17 09:31:45;;;;;;;15.40;5.53;;;;;;;33.29;31.30;97972.53;4988350;28;20096;-65
2023/05/17 09:34:18;;;;;;;22.92;6.68;;;;;;;33.23;33.52;97975.91;4988815;28;20065;-63
2023/05/17 09:36:48;;;;;;;11.82;5.63;;;;;;;33.35;33.86;97975.78;4989921;28;20054;-66
2023/05/17 09:39:17;;;;;;;15.88;5.60;;;;;;;33.79;33.18;97966.13;4988962;28;20136;-67
2023/05/17 09:41:48;;;;;;;13.55;5.30;;;;;;;33.73;33.55;97966.78;4989156;28;20092;-66
2023/05/17 09:44:18;;;;;;;12.52;5.30;;;;;;;33.75;33.73;97957.03;4987434;28;20046;-68
2023/05/17 09:46:48;;;;;;;8.07;5.32;;;;;;;33.74;33.96;97962.88;4988985;28;20348;-66
2023/05/17 09:49:18;;;;;;;18.35;6.22;;;;;;;33.71;33.89;97961.66;4987944;28;20498;-66
2023/05/17 09:51:49;;;;;;;11.13;5.35;;;;;;;33.93;31.90;97962.06;4982279;28;20078;-69
2023/05/17 09:54:19;;;;;;;11.90;5.45;;;;;;;33.97;33.05;97950.00;4986641;28;20411;-68
2023/05/17 09:56:58;;;;;;;11.10;5.60;;;;;;;33.85;32.64;97941.91;4988933;28;20093;-67
2023/05/17 09:59:29;;;;;;;16.35;5.90;;;;;;;33.73;31.05;97939.31;4987727;28;20792;-65
2023/05/17 10:02:00;;;;;;;9.00;5.55;;;;;;;33.61;32.18;97926.50;4987980;28;20058;-65
2023/05/17 10:04:31;;;;;;;12.60;5.53;;;;;;;33.64;32.91;97933.22;4987979;28;20054;-64
2023/05/17 10:07:00;;;;;;;16.20;5.60;;;;;;;33.66;32.84;97930.94;4988777;28;20046;-65
2023/05/17 10:09:34;;;;;;;12.63;5.72;;;;;;;33.61;33.11;97920.22;4991319;28;20381;-65
2023/05/17 10:12:04;;;;;;;11.32;5.68;;;;;;;33.64;33.27;97925.78;4987747;28;20112;-66
2023/05/17 10:14:36;;;;;;;13.38;5.82;;;;;;;33.74;32.95;97918.94;4988084;28;20121;-66
2023/05/17 10:17:07;;;;;;;12.70;5.97;;;;;;;33.57;33.75;97903.66;4987430;28;20076;-67
2023/05/17 10:19:37;;;;;;;11.30;5.93;;;;;;;33.50;33.24;97902.75;4985499;28;20072;-65
2023/05/17 10:22:09;;;;;;;11.88;6.40;;;;;;;33.44;33.90;97896.75;4987608;28;20390;-67
2023/05/17 10:24:51;;;;;;;14.75;6.22;;;;;;;33.54;33.92;97892.63;4986797;28;20473;-66
2023/05/17 10:27:21;;;;;;;13.65;6.20;;;;;;;33.52;34.25;97892.97;4987680;28;20050;-63
2023/05/17 10:29:53;;;;;;;21.65;6.05;;;;;;;33.47;34.02;97887.78;4992265;28;20081;-61
2023/05/17 10:32:25;;;;;;;15.18;6.13;;;;;;;33.18;34.01;97875.44;4986366;28;20050;-63
2023/05/17 10:34:55;;;;;;;13.40;6.50;;;;;;;33.34;33.70;97876.16;4987815;28;20046;-63
2023/05/17 10:37:40;;;;;;;13.60;5.88;;;;;;;33.38;34.84;97873.47;4991798;28;20050;-65
2023/05/17 10:40:12;;;;;;;13.30;6.38;;;;;;;33.29;33.41;97870.16;4989305;28;20054;-62
2023/05/17 10:42:50;;;;;;;15.82;6.43;;;;;;;33.37;30.16;97869.16;4988164;28;20042;-63
2023/05/17 10:45:24;;;;;;;18.58;6.20;;;;;;;33.66;33.62;97859.53;4987814;28;20355;-63
2023/05/17 10:47:55;;;;;;;11.75;5.90;;;;;;;33.84;36.30;97866.94;4988140;28;20062;-65
2023/05/17 10:50:28;;;;;;;15.25;6.40;;;;;;;34.19;28.16;97854.97;4986634;28;20116;-62
2023/05/17 10:52:59;;;;;;;13.90;5.75;;;;;;;34.26;35.98;97855.09;4987607;28;20074;-61
2023/05/17 10:55:41;;;;;;;12.25;6.20;;;;;;;34.32;32.12;97845.38;4986697;28;20399;-61
2023/05/17 10:58:16;;;;;;;12.90;5.30;;;;;;;34.33;33.59;97844.22;4967002;28;20101;-63
2023/05/17 11:00:53;;;;;;;9.95;6.20;;;;;;;34.25;35.16;97846.06;4987501;28;20050;-61
2023/05/17 11:03:28;;;;;;;23.52;7.40;;;;;;;34.56;28.15;97838.66;4975153;28;20073;-62
2023/05/17 11:06:10;;;;;;;16.25;6.75;;;;;;;34.87;33.29;97852.13;4630688;28;10000155;-63
2023/05/17 11:09:17;;;;;;;26.30;7.80;;;;;;;34.89;28.21;97837.97;4987287;28;20054;-70
2023/05/17 11:12:08;;;;;;;18.95;6.75;;;;;;;34.95;25.41;97840.03;4983753;28;20145;-60
2023/05/17 11:14:46;;;;;;;15.43;6.53;;;;;;;35.19;25.73;97830.50;4983340;28;20054;-63
2023/05/17 11:17:20;;;;;;;17.42;6.35;;;;;;;35.22;25.02;97835.28;4973203;28;20461;-65
2023/05/17 11:20:11;;;;;;;26.40;6.38;;;;;;;35.36;25.54;97829.91;4961061;28;20054;-65
2023/05/17 11:22:50;;;;;;;16.65;6.57;;;;;;;35.56;24.50;97816.75;4983817;28;20204;-65
2023/05/17 11:25:20;;;;;;;17.42;7.57;;;;;;;35.61;24.41;97821.94;4982184;28;20046;-63
2023/05/17 11:27:51;;;;;;;24.05;8.23;;;;;;;35.58;25.64;97819.94;4984335;28;20563;-64
2023/05/17 11:30:29;;;;;;;23.67;7.85;;;;;;;35.56;27.24;97822.25;4985088;28;20043;-67
2023/05/17 11:32:59;;;;;;;16.30;7.07;;;;;;;35.47;26.37;97811.56;4984787;28;20074;-63
2023/05/17 11:35:38;;;;;;;14.93;6.20;;;;;;;35.44;23.95;97814.28;4984790;28;20058;-62
2023/05/17 11:38:23;;;;;;;16.17;6.00;;;;;;;35.37;24.52;97803.97;4982743;28;20142;-62
2023/05/17 11:40:56;;;;;;;15.50;5.72;;;;;;;35.44;24.90;97819.78;4976213;28;20379;-65
2023/05/17 11:43:29;;;;;;;20.20;6.70;;;;;;;35.39;25.64;97823.66;4982887;28;20343;-66